Time;durP1;ratioP1;P1;durP2;ratioP2;P2;SDS_P1;SDS_P2;PMS_P1;PMS_P2;Temp;Humidity;BMP_temperature;BMP_pressure;BME280_temperature;BME280_humidity;BME280_pressure;Samples;Min_cycle;Max_cycle;Signal;HPM_P1;HPM_P2
2023/06/11 00:00:42;;;;;;;;;8.00;8.00;;;;;24.12;30.79;101388.14;112133;1263;19801;-38
2023/06/11 00:03:33;;;;;;;;;8.00;6.00;;;;;24.11;30.86;101394.83;112140;1248;21675;-37
2023/06/11 00:06:00;;;;;;;;;8.67;7.33;;;;;24.09;30.80;101398.17;112298;1263;19303;-38
2023/06/11 00:08:28;;;;;;;;;6.00;6.00;;;;;24.06;30.78;101396.00;112157;1247;19556;-38
2023/06/11 00:10:55;;;;;;;;;6.00;6.00;;;;;24.07;30.65;101397.34;112270;1263;20029;-38
2023/06/11 00:13:23;;;;;;;;;9.00;6.00;;;;;24.08;30.68;101397.44;112161;1254;20655;-38
2023/06/11 00:15:50;;;;;;;;;9.00;8.00;;;;;24.07;30.55;101396.52;112289;1263;18181;-37
2023/06/11 00:18:18;;;;;;;;;8.33;6.00;;;;;24.07;30.60;101394.08;112121;1263;20076;-38
2023/06/11 00:20:46;;;;;;;;;8.67;6.67;;;;;24.05;30.64;101393.71;112265;1248;21072;-39
2023/06/11 00:23:13;;;;;;;;;9.00;9.00;;;;;24.03;30.42;101392.36;112204;1248;19582;-38
2023/06/11 00:25:40;;;;;;;;;8.67;8.00;;;;;24.01;30.48;101389.64;112280;1256;18816;-38
2023/06/11 00:28:08;;;;;;;;;10.00;8.50;;;;;24.01;30.59;101387.48;112165;1247;20727;-38
2023/06/11 00:30:35;;;;;;;;;8.50;8.50;;;;;24.00;30.62;101391.39;112236;1263;18383;-38
2023/06/11 00:33:03;;;;;;;;;12.00;10.00;;;;;24.00;30.38;101389.91;112167;1247;18781;-37
2023/06/11 00:35:30;;;;;;;;;9.33;8.67;;;;;24.00;30.45;101390.20;112277;1263;19352;-37
2023/06/11 00:37:58;;;;;;;;;9.50;8.50;;;;;24.00;30.41;101393.95;112144;1263;20285;-37
2023/06/11 00:40:25;;;;;;;;;6.00;6.00;;;;;23.99;30.63;101390.95;112269;1247;20407;-38
2023/06/11 00:42:54;;;;;;;;;9.00;9.00;;;;;23.99;30.47;101390.65;112194;1247;21109;-38
2023/06/11 00:45:24;;;;;;;;;7.33;6.00;;;;;23.98;30.67;101388.36;112205;1247;20770;-38
2023/06/11 00:47:51;;;;;;;;;8.00;6.00;;;;;23.96;30.61;101391.52;112236;1263;19984;-38
2023/06/11 00:50:19;;;;;;;;;9.00;8.00;;;;;23.96;30.43;101395.56;112127;1263;20666;-38
2023/06/11 00:52:47;;;;;;;;;8.00;8.00;;;;;23.96;30.63;101398.98;112169;1263;19586;-38
2023/06/11 00:55:15;;;;;;;;;9.00;8.00;;;;;23.95;30.48;101397.14;111792;1247;336131;-38
2023/06/11 00:57:42;;;;;;;;;12.50;9.00;;;;;23.93;30.55;101398.75;112175;1263;19217;-38
2023/06/11 01:00:12;;;;;;;;;6.67;6.67;;;;;23.93;30.52;101398.97;112063;1263;18527;-38
2023/06/11 01:02:40;;;;;;;;;8.00;6.00;;;;;23.93;30.57;101398.63;112045;1263;18758;-38
2023/06/11 01:05:07;;;;;;;;;9.50;8.50;;;;;23.93;30.68;101395.38;112160;1263;19454;-40
2023/06/11 01:07:35;;;;;;;;;8.67;6.00;;;;;23.91;30.52;101394.30;112144;1247;19832;-38
2023/06/11 01:10:02;;;;;;;;;9.50;8.50;;;;;23.92;30.67;101398.06;112170;1248;20103;-38
2023/06/11 01:12:30;;;;;;;;;8.00;8.00;;;;;23.91;30.69;101397.25;112150;1263;20796;-39
2023/06/11 01:14:57;;;;;;;;;9.00;8.00;;;;;23.88;30.64;101395.92;112152;1263;19760;-39
2023/06/11 01:17:25;;;;;;;;;10.00;9.00;;;;;23.88;30.56;101394.35;112129;1263;21112;-39
2023/06/11 01:19:56;;;;;;;;;8.00;8.00;;;;;23.85;30.66;101392.67;112140;1250;20807;-39
2023/06/11 01:22:29;;;;;;;;;8.00;8.00;;;;;23.85;30.78;101398.15;112125;1263;20269;-39
2023/06/11 01:24:56;;;;;;;;;8.00;8.00;;;;;23.85;30.61;101398.62;112229;1263;18532;-39
2023/06/11 01:27:24;;;;;;;;;9.00;8.00;;;;;23.83;30.57;101391.61;112137;1251;20696;-40
2023/06/11 01:29:51;;;;;;;;;8.00;8.00;;;;;23.82;30.64;101397.58;112239;1263;19879;-39
2023/06/11 01:32:19;;;;;;;;;6.00;6.00;;;;;23.81;30.68;101394.54;112119;1262;20080;-40
2023/06/11 01:34:46;;;;;;;;;9.00;8.00;;;;;23.81;30.74;101397.48;112255;1248;21054;-39
2023/06/11 01:37:14;;;;;;;;;9.50;9.50;;;;;23.81;30.51;101397.17;112090;1263;19897;-39
2023/06/11 01:39:45;;;;;;;;;10.00;9.00;;;;;23.80;30.71;101401.26;112198;1247;20092;-45
2023/06/11 01:42:13;;;;;;;;;8.00;8.00;;;;;23.78;30.66;101405.02;112132;1263;20786;-39
2023/06/11 01:44:40;;;;;;;;;8.00;8.00;;;;;23.76;30.74;101408.49;112280;1263;18732;-39
2023/06/11 01:47:07;;;;;;;;;6.67;6.67;;;;;23.76;30.52;101408.91;112114;1247;21154;-39
2023/06/11 01:49:35;;;;;;;;;12.33;10.33;;;;;23.73;30.63;101411.78;112247;1263;19339;-39
2023/06/11 01:52:02;;;;;;;;;9.00;8.00;;;;;23.71;30.46;101407.56;112205;1247;19602;-39
2023/06/11 01:54:30;;;;;;;;;9.50;8.50;;;;;23.71;30.61;101408.73;112230;1263;21361;-39
2023/06/11 01:56:57;;;;;;;;;12.00;9.00;;;;;23.70;30.77;101408.55;112173;1247;21273;-39
2023/06/11 01:59:25;;;;;;;;;9.00;9.00;;;;;23.69;30.63;101412.74;112251;1263;19537;-39
2023/06/11 02:01:53;;;;;;;;;9.00;9.00;;;;;23.68;30.64;101413.08;112118;1263;18934;-40
2023/06/11 02:04:21;;;;;;;;;11.00;9.00;;;;;23.67;30.76;101413.21;112238;1263;21387;-39
2023/06/11 02:06:48;;;;;;;;;8.00;8.00;;;;;23.66;30.83;101414.17;112124;1263;18725;-39
2023/06/11 02:09:16;;;;;;;;;11.67;10.33;;;;;23.68;30.61;101413.45;112247;1249;19975;-39
2023/06/11 02:11:43;;;;;;;;;12.00;11.00;;;;;23.67;30.90;101416.67;112155;1263;19215;-39
2023/06/11 02:14:11;;;;;;;;;8.00;8.00;;;;;23.66;30.86;101413.66;112270;1263;20248;-39
2023/06/11 02:16:39;;;;;;;;;12.00;9.00;;;;;23.66;30.76;101419.99;112119;1263;20234;-39
2023/06/11 02:19:06;;;;;;;;;9.00;8.33;;;;;23.64;30.77;101420.88;112206;1263;19694;-40
2023/06/11 02:21:34;;;;;;;;;9.00;8.00;;;;;23.62;30.89;101419.48;112114;1263;18775;-40
2023/06/11 02:24:01;;;;;;;;;11.00;11.00;;;;;23.61;30.80;101419.86;112241;1263;18890;-39
2023/06/11 02:26:28;;;;;;;;;11.00;9.00;;;;;23.60;30.83;101420.73;112121;1247;19333;-40
2023/06/11 02:28:56;;;;;;;;;11.00;11.00;;;;;23.60;30.82;101421.87;112260;1263;18729;-39
2023/06/11 02:31:24;;;;;;;;;9.00;9.00;;;;;23.59;30.79;101426.18;112107;1263;20043;-39
2023/06/11 02:33:51;;;;;;;;;12.00;11.00;;;;;23.57;30.96;101426.16;112271;1248;20991;-40
2023/06/11 02:36:18;;;;;;;;;11.50;9.00;;;;;23.56;30.90;101431.57;112132;1263;18611;-40
2023/06/11 02:38:46;;;;;;;;;11.00;11.00;;;;;23.55;30.68;101433.69;112227;1256;21553;-39
2023/06/11 02:41:15;;;;;;;;;11.50;9.00;;;;;23.53;30.69;101435.77;112122;1248;22281;-40
2023/06/11 02:43:42;;;;;;;;;10.00;8.50;;;;;23.53;30.66;101437.88;112085;1263;20257;-40
2023/06/11 02:46:10;;;;;;;;;9.00;9.00;;;;;23.50;30.69;101436.23;112207;1263;18978;-39
2023/06/11 02:48:37;;;;;;;;;11.00;10.00;;;;;23.47;30.66;101436.12;112144;1263;19594;-39
2023/06/11 02:51:05;;;;;;;;;11.00;11.00;;;;;23.47;30.52;101443.41;112225;1250;19787;-40
2023/06/11 02:53:32;;;;;;;;;12.00;11.00;;;;;23.45;30.55;101447.46;112130;1263;18663;-39
2023/06/11 02:56:00;;;;;;;;;11.67;10.33;;;;;23.44;30.79;101452.02;112139;1248;20946;-40
2023/06/11 02:58:27;;;;;;;;;14.00;11.33;;;;;23.45;30.89;101450.74;112136;1263;19917;-40
2023/06/11 03:00:55;;;;;;;;;14.00;11.00;;;;;23.45;30.94;101454.95;112079;1247;21467;-40
2023/06/11 03:03:22;;;;;;;;;15.50;14.50;;;;;23.44;30.86;101457.77;112150;1248;20785;-39
2023/06/11 03:05:49;;;;;;;;;12.00;11.67;;;;;23.44;30.96;101460.23;112065;1263;18590;-40
2023/06/11 03:08:17;;;;;;;;;11.00;9.00;;;;;23.43;30.97;101465.38;112172;1247;21531;-39
2023/06/11 03:10:44;;;;;;;;;11.00;9.00;;;;;23.43;30.94;101466.69;112096;1263;20660;-40
2023/06/11 03:13:12;;;;;;;;;12.00;11.00;;;;;23.43;30.97;101465.46;112144;1263;18756;-40
2023/06/11 03:15:39;;;;;;;;;11.00;9.00;;;;;23.39;31.11;101465.81;112089;1248;21361;-39
2023/06/11 03:18:07;;;;;;;;;11.50;11.00;;;;;23.37;31.00;101466.44;112208;1247;19462;-40
2023/06/11 03:20:34;;;;;;;;;9.00;8.00;;;;;23.39;31.04;101474.30;112106;1247;20033;-39
2023/06/11 03:23:02;;;;;;;;;9.00;9.00;;;;;23.39;31.02;101474.77;112171;1263;20184;-40
2023/06/11 03:25:29;;;;;;;;;9.00;8.00;;;;;23.39;31.05;101477.70;112078;1263;20735;-40
2023/06/11 03:27:56;;;;;;;;;11.00;11.00;;;;;23.38;30.96;101473.69;112195;1263;19781;-39
2023/06/11 03:30:24;;;;;;;;;12.50;11.50;;;;;23.38;30.98;101476.56;112112;1263;18700;-39
2023/06/11 03:32:51;;;;;;;;;11.00;11.00;;;;;23.38;31.04;101478.95;112233;1248;20896;-40
2023/06/11 03:35:19;;;;;;;;;12.50;12.00;;;;;23.37;30.99;101474.91;112110;1263;19898;-39
2023/06/11 03:37:46;;;;;;;;;11.50;11.00;;;;;23.36;31.09;101475.57;112191;1263;21310;-39
2023/06/11 03:40:14;;;;;;;;;11.67;11.00;;;;;23.36;31.04;101479.86;112132;1263;19313;-40
2023/06/11 03:42:41;;;;;;;;;9.00;9.00;;;;;23.37;31.09;101484.23;112233;1263;20011;-40
2023/06/11 03:45:09;;;;;;;;;10.00;9.00;;;;;23.35;30.91;101485.83;112095;1256;18930;-40
2023/06/11 03:47:36;;;;;;;;;9.00;8.33;;;;;23.33;31.09;101484.77;112230;1249;20918;-39
2023/06/11 03:50:04;;;;;;;;;14.00;13.00;;;;;23.33;31.01;101488.10;112139;1263;18518;-40
2023/06/11 03:52:32;;;;;;;;;8.50;8.50;;;;;23.31;30.99;101491.31;112155;1263;18603;-39
2023/06/11 03:54:59;;;;;;;;;9.00;9.00;;;;;23.28;30.87;101491.02;112043;1263;20692;-40
2023/06/11 03:57:27;;;;;;;;;14.00;11.50;;;;;23.28;31.03;101497.75;112195;1263;19840;-39
2023/06/11 03:59:54;;;;;;;;;11.50;11.00;;;;;23.27;30.91;101498.89;112099;1263;18803;-40
2023/06/11 04:02:21;;;;;;;;;9.00;9.00;;;;;23.27;30.87;101501.77;112215;1247;21994;-39
2023/06/11 04:04:50;;;;;;;;;15.00;12.00;;;;;23.24;30.73;101502.45;112110;1256;20100;-39
2023/06/11 04:07:17;;;;;;;;;11.00;9.00;;;;;23.22;30.90;101503.23;112120;1263;21408;-40
2023/06/11 04:09:45;;;;;;;;;8.67;8.33;;;;;23.19;30.85;101504.67;112184;1263;20829;-39
2023/06/11 04:12:12;;;;;;;;;8.00;8.00;;;;;23.19;30.80;101508.66;112120;1263;18718;-39
2023/06/11 04:14:40;;;;;;;;;8.33;8.00;;;;;23.19;30.98;101511.15;112205;1256;20475;-39
2023/06/11 04:17:07;;;;;;;;;11.00;9.00;;;;;23.17;30.92;101513.23;112156;1263;20637;-40
2023/06/11 04:19:34;;;;;;;;;8.00;8.00;;;;;23.13;30.91;101510.85;112074;1247;19847;-39
2023/06/11 04:22:02;;;;;;;;;8.00;8.00;;;;;23.13;30.94;101514.84;112181;1263;18622;-39
2023/06/11 04:24:29;;;;;;;;;9.00;9.00;;;;;23.13;30.74;101514.81;112070;1263;19390;-39
2023/06/11 04:26:58;;;;;;;;;9.00;8.67;;;;;23.14;30.63;101515.70;112191;1263;19722;-39
2023/06/11 04:29:29;;;;;;;;;8.00;8.00;;;;;23.15;30.96;101515.63;112268;1263;18582;-39
2023/06/11 04:32:03;;;;;;;;;9.00;8.00;;;;;23.07;30.78;101514.08;112190;1263;19576;-37
2023/06/11 04:34:31;;;;;;;;;8.00;8.00;;;;;23.04;30.91;101513.97;112252;1248;19629;-39
2023/06/11 04:36:58;;;;;;;;;9.00;8.00;;;;;23.06;30.71;101518.70;112182;1263;20190;-39
2023/06/11 04:39:26;;;;;;;;;8.67;8.00;;;;;22.94;31.02;101519.83;112279;1247;20676;-39
2023/06/11 04:41:53;;;;;;;;;8.00;8.00;;;;;22.93;30.93;101516.10;112146;1263;18163;-39
2023/06/11 04:44:21;;;;;;;;;10.00;9.00;;;;;22.99;31.20;101517.27;112279;1248;21231;-40
2023/06/11 04:46:48;;;;;;;;;9.00;9.00;;;;;22.97;31.01;101520.08;112140;1247;20874;-39
2023/06/11 04:49:20;;;;;;;;;9.00;8.50;;;;;22.59;31.34;101520.70;112221;1263;20177;-40
2023/06/11 04:51:48;;;;;;;;;11.00;11.00;;;;;22.30;31.55;101525.66;112126;1247;20375;-39
2023/06/11 04:54:17;;;;;;;;;8.00;8.00;;;;;22.28;31.94;101527.05;112237;1263;19364;-41
2023/06/11 04:56:44;;;;;;;;;10.00;7.00;;;;;22.03;32.30;101528.41;112049;1263;19935;-39
2023/06/11 04:59:12;;;;;;;;;7.00;7.00;;;;;21.84;32.60;101534.34;112182;1247;20443;-40
2023/06/11 05:01:46;;;;;;;;;8.00;8.00;;;;;21.78;32.65;101530.80;112030;1257;21081;-39
2023/06/11 05:04:14;;;;;;;;;8.00;8.00;;;;;21.79;32.94;101537.76;112106;1263;19838;-39
2023/06/11 05:06:44;;;;;;;;;10.00;8.00;;;;;21.92;33.00;101527.67;112201;1250;20731;-39
2023/06/11 05:09:12;;;;;;;;;11.67;9.33;;;;;21.90;32.97;101532.04;112198;1247;22077;-40
2023/06/11 05:11:40;;;;;;;;;8.00;8.00;;;;;22.13;32.98;101528.06;112193;1251;20014;-39
2023/06/11 05:14:07;;;;;;;;;9.33;9.33;;;;;22.19;32.82;101525.31;112146;1263;20342;-39
2023/06/11 05:16:35;;;;;;;;;10.00;8.00;;;;;21.96;33.01;101524.86;112148;1247;20968;-39
2023/06/11 05:19:02;;;;;;;;;8.67;8.67;;;;;21.85;33.38;101525.11;112087;1262;19551;-39
2023/06/11 05:21:30;;;;;;;;;8.00;7.33;;;;;21.98;33.25;101526.75;112191;1247;20230;-39
2023/06/11 05:24:06;;;;;;;;;9.00;8.00;;;;;21.76;33.86;101530.32;112141;1263;19330;-40
2023/06/11 05:26:34;;;;;;;;;7.00;7.00;;;;;21.74;33.83;101535.24;112136;1248;19589;-39
2023/06/11 05:29:01;;;;;;;;;7.67;7.67;;;;;21.73;33.99;101534.80;112236;1248;20036;-40
2023/06/11 05:31:30;;;;;;;;;11.00;10.00;;;;;21.79;33.80;101541.95;112146;1248;20679;-39
2023/06/11 05:33:58;;;;;;;;;9.00;8.00;;;;;21.82;34.02;101540.19;112129;1250;19926;-39
2023/06/11 05:36:26;;;;;;;;;8.00;8.00;;;;;21.85;34.05;101538.95;112250;1263;19043;-39
2023/06/11 05:38:53;;;;;;;;;10.00;9.00;;;;;22.00;34.28;101544.82;112140;1263;20836;-39
2023/06/11 05:41:20;;;;;;;;;8.00;8.00;;;;;21.87;34.42;101549.86;112256;1263;18716;-40
2023/06/11 05:43:48;;;;;;;;;10.00;10.00;;;;;21.57;34.77;101553.95;112169;1263;21423;-39
2023/06/11 05:46:15;;;;;;;;;10.00;10.00;;;;;21.57;35.03;101556.83;112262;1263;21251;-39
2023/06/11 05:48:43;;;;;;;;;8.00;8.00;;;;;21.73;34.71;101554.93;112158;1263;21138;-39
2023/06/11 05:51:10;;;;;;;;;10.00;10.00;;;;;21.67;34.94;101555.59;112267;1263;20168;-40
2023/06/11 05:53:38;;;;;;;;;8.67;8.00;;;;;21.82;34.81;101551.63;112168;1247;20560;-39
2023/06/11 05:56:06;;;;;;;;;13.50;11.50;;;;;21.95;34.95;101554.21;112266;1263;20073;-40
2023/06/11 05:58:33;;;;;;;;;10.50;10.00;;;;;22.13;34.79;101559.64;112138;1263;20056;-39
2023/06/11 06:01:02;;;;;;;;;8.00;8.00;;;;;22.11;34.71;101558.39;112263;1248;19487;-39
2023/06/11 06:03:29;;;;;;;;;10.50;10.00;;;;;22.08;34.75;101557.73;112092;1247;20377;-39
2023/06/11 06:05:58;;;;;;;;;10.00;10.00;;;;;22.23;35.00;101562.19;112184;1255;21217;-40
2023/06/11 06:08:25;;;;;;;;;11.00;11.00;;;;;22.37;34.82;101559.30;112275;1247;21344;-39
2023/06/11 06:10:53;;;;;;;;;10.00;10.00;;;;;22.28;35.05;101568.86;112134;1247;18705;-39
2023/06/11 06:13:20;;;;;;;;;7.33;7.00;;;;;21.99;35.32;101567.42;112271;1263;21498;-38
2023/06/11 06:15:48;;;;;;;;;10.33;8.67;;;;;22.09;35.45;101571.88;112144;1247;21162;-39
2023/06/11 06:18:16;;;;;;;;;8.00;8.00;;;;;21.91;35.77;101567.63;112240;1263;19741;-39
2023/06/11 06:20:43;;;;;;;;;8.00;7.50;;;;;21.77;35.92;101570.23;112154;1263;18852;-39
2023/06/11 06:23:10;;;;;;;;;10.00;9.00;;;;;22.02;35.90;101572.52;112241;1247;20790;-39
2023/06/11 06:25:38;;;;;;;;;8.00;8.00;;;;;22.38;35.75;101567.56;112185;1256;19636;-40
2023/06/11 06:28:05;;;;;;;;;11.00;10.00;;;;;22.52;35.24;101567.86;112331;1263;20118;-40
2023/06/11 06:30:33;;;;;;;;;10.50;10.00;;;;;22.33;35.38;101565.04;112231;1263;20866;-39
2023/06/11 06:33:01;;;;;;;;;7.33;7.33;;;;;22.23;35.45;101571.08;112326;1248;20201;-40
2023/06/11 06:35:28;;;;;;;;;11.00;9.00;;;;;22.02;35.81;101573.64;112258;1263;20170;-40
2023/06/11 06:37:55;;;;;;;;;11.00;11.00;;;;;22.05;36.09;101569.33;112340;1256;19317;-40
2023/06/11 06:40:23;;;;;;;;;10.00;10.00;;;;;22.07;36.28;101572.23;112224;1263;19872;-41
2023/06/11 06:42:50;;;;;;;;;10.50;10.00;;;;;22.14;36.32;101565.06;112326;1247;21307;-41
2023/06/11 06:45:18;;;;;;;;;10.00;10.00;;;;;22.41;36.07;101565.86;112218;1249;19384;-40
2023/06/11 06:47:45;;;;;;;;;10.50;10.00;;;;;22.32;36.09;101569.33;112352;1247;21468;-40
2023/06/11 06:50:13;;;;;;;;;9.00;9.00;;;;;22.34;36.07;101570.01;112187;1263;18703;-40
2023/06/11 06:52:40;;;;;;;;;10.00;10.00;;;;;22.53;36.10;101572.89;112270;1263;21081;-40
2023/06/11 06:55:08;;;;;;;;;10.00;10.00;;;;;22.47;36.31;101569.05;112129;1247;19636;-40
2023/06/11 06:57:35;;;;;;;;;11.00;11.00;;;;;22.45;36.37;101572.66;112290;1248;18712;-40
2023/06/11 07:00:04;;;;;;;;;10.00;10.00;;;;;22.42;36.35;101577.08;112159;1255;19389;-39
2023/06/11 07:02:31;;;;;;;;;11.00;11.00;;;;;22.33;36.39;101578.37;112205;1263;21155;-39
2023/06/11 07:05:00;;;;;;;;;8.00;8.00;;;;;22.43;36.52;101576.70;112105;1247;20479;-40
2023/06/11 07:07:27;;;;;;;;;8.00;7.00;;;;;22.62;36.32;101575.00;112164;1263;19233;-41
2023/06/11 07:09:55;;;;;;;;;11.00;8.00;;;;;22.88;36.03;101577.54;112186;1247;18583;-40
2023/06/11 07:12:22;;;;;;;;;8.00;8.00;;;;;23.10;35.82;101573.78;112108;1263;19996;-40
2023/06/11 07:14:50;;;;;;;;;8.00;8.00;;;;;23.16;35.90;101573.69;112150;1247;21064;-40
2023/06/11 07:17:18;;;;;;;;;8.00;8.00;;;;;23.22;35.80;101572.36;112140;1263;18327;-40
2023/06/11 07:19:45;;;;;;;;;9.00;9.00;;;;;23.34;35.72;101568.41;112295;1263;20252;-40
2023/06/11 07:22:13;;;;;;;;;7.50;7.50;;;;;23.46;35.80;101569.96;112148;1248;20647;-39
2023/06/11 07:24:42;;;;;;;;;11.00;11.00;;;;;23.47;35.79;101568.77;112256;1247;20844;-40
2023/06/11 07:27:10;;;;;;;;;19.00;17.00;;;;;23.46;35.98;101571.09;112172;1247;20344;-40
2023/06/11 07:29:38;;;;;;;;;48.67;38.67;;;;;23.53;35.69;101568.03;112168;1263;19711;-41
2023/06/11 07:32:06;;;;;;;;;77.00;57.00;;;;;23.56;35.70;101570.66;112224;1263;18918;-41
2023/06/11 07:34:33;;;;;;;;;81.00;59.00;;;;;23.65;35.68;101571.48;112112;1263;19425;-41
2023/06/11 07:37:01;;;;;;;;;72.50;55.00;;;;;23.66;35.74;101571.35;112234;1263;20705;-41
2023/06/11 07:39:28;;;;;;;;;69.00;52.00;;;;;23.67;35.59;101572.33;112127;1263;19904;-41
2023/06/11 07:41:56;;;;;;;;;69.00;50.00;;;;;23.68;35.69;101573.97;112279;1247;19188;-40
2023/06/11 07:44:23;;;;;;;;;51.00;44.00;;;;;23.66;35.82;101575.55;112132;1248;20812;-39
2023/06/11 07:46:51;;;;;;;;;50.00;42.67;;;;;23.61;35.60;101576.82;112113;1247;21609;-38
2023/06/11 07:49:18;;;;;;;;;39.67;32.67;;;;;23.69;35.70;101574.75;112161;1263;21042;-39
2023/06/11 07:51:46;;;;;;;;;29.50;28.00;;;;;23.79;35.61;101571.09;112276;1247;20956;-39
2023/06/11 07:54:13;;;;;;;;;32.00;27.00;;;;;23.81;35.72;101575.46;112133;1263;21373;-40
2023/06/11 07:56:41;;;;;;;;;22.50;19.50;;;;;23.85;35.87;101568.91;112256;1263;20281;-39
2023/06/11 07:59:09;;;;;;;;;18.00;16.00;;;;;23.89;35.58;101570.73;112111;1249;20758;-39
2023/06/11 08:01:36;;;;;;;;;15.00;15.00;;;;;23.91;35.72;101568.91;112239;1263;18517;-38
2023/06/11 08:04:04;;;;;;;;;18.00;15.50;;;;;24.04;35.67;101571.45;112065;1247;20413;-38
2023/06/11 08:06:31;;;;;;;;;12.50;12.00;;;;;24.04;35.59;101565.70;112239;1263;20691;-37
2023/06/11 08:08:59;;;;;;;;;12.00;12.00;;;;;23.98;35.61;101568.17;112153;1257;20291;-38
2023/06/11 08:11:26;;;;;;;;;13.00;13.00;;;;;24.01;35.85;101565.03;112239;1248;20121;-41
2023/06/11 08:13:53;;;;;;;;;14.00;12.50;;;;;24.11;35.89;101563.72;112121;1247;21119;-37
2023/06/11 08:16:21;;;;;;;;;12.00;12.00;;;;;24.08;35.80;101555.32;112246;1249;18679;-37
2023/06/11 08:18:48;;;;;;;;;9.00;9.00;;;;;24.06;35.83;101556.78;112145;1248;21288;-37
2023/06/11 08:21:16;;;;;;;;;9.50;9.50;;;;;24.07;35.96;101553.95;112286;1247;20633;-38
2023/06/11 08:23:43;;;;;;;;;10.00;9.00;;;;;24.12;36.14;101550.59;112150;1263;18713;-38
2023/06/11 08:26:12;;;;;;;;;9.00;9.00;;;;;24.17;35.68;101551.36;112265;1263;18759;-38
2023/06/11 08:28:39;;;;;;;;;11.00;9.00;;;;;24.04;35.63;101559.02;112061;1247;20796;-38
2023/06/11 08:31:06;;;;;;;;;6.00;6.00;;;;;23.93;35.63;101550.19;112203;1247;21100;-40
2023/06/11 08:33:34;;;;;;;;;10.00;10.00;;;;;23.95;35.58;101546.58;112123;1251;20338;-39
2023/06/11 08:36:01;;;;;;;;;10.00;10.00;;;;;24.04;35.59;101548.08;112230;1263;19321;-39
2023/06/11 08:38:29;;;;;;;;;11.00;9.00;;;;;24.09;35.37;101546.31;112136;1247;18774;-39
2023/06/11 08:40:57;;;;;;;;;15.00;10.50;;;;;24.05;35.30;101546.54;112188;1248;20481;-39
2023/06/11 08:43:24;;;;;;;;;9.67;9.67;;;;;24.00;35.08;101545.83;112090;1248;20893;-38
2023/06/11 08:45:52;;;;;;;;;9.33;9.00;;;;;24.05;35.15;101552.59;112174;1263;22624;-39
2023/06/11 08:48:19;;;;;;;;;12.00;9.00;;;;;23.73;34.55;101549.64;112100;1263;18528;-40
2023/06/11 08:50:47;;;;;;;;;11.00;11.00;;;;;23.64;34.61;101544.80;112209;1248;20954;-38
2023/06/11 08:53:14;;;;;;;;;9.00;9.00;;;;;23.58;34.78;101544.45;112079;1256;19932;-38
2023/06/11 08:55:42;;;;;;;;;11.00;9.00;;;;;23.57;34.63;101546.85;112185;1263;21157;-39
2023/06/11 08:58:09;;;;;;;;;11.00;9.00;;;;;23.62;33.98;101538.05;112095;1248;20765;-38
2023/06/11 09:00:37;;;;;;;;;10.00;7.50;;;;;23.70;33.71;101535.98;112227;1247;20207;-38
2023/06/11 09:03:04;;;;;;;;;9.67;9.67;;;;;23.68;33.46;101536.06;112066;1263;20349;-38
2023/06/11 09:05:32;;;;;;;;;10.33;9.67;;;;;23.68;33.31;101528.77;112236;1250;21670;-38
2023/06/11 09:07:59;;;;;;;;;14.00;10.00;;;;;23.77;33.57;101530.06;112099;1247;19627;-38
2023/06/11 09:10:26;;;;;;;;;11.00;11.00;;;;;23.61;33.26;101526.65;112228;1263;20045;-38
2023/06/11 09:12:54;;;;;;;;;11.00;11.00;;;;;23.59;33.18;101525.20;112099;1263;20890;-39
2023/06/11 09:15:22;;;;;;;;;10.00;9.00;;;;;23.62;33.45;101525.60;112176;1248;20479;-39
2023/06/11 09:17:49;;;;;;;;;11.00;9.00;;;;;23.69;33.57;101528.08;112111;1247;20405;-40
2023/06/11 09:20:16;;;;;;;;;9.00;9.00;;;;;23.80;33.54;101524.83;112212;1257;20656;-39
2023/06/11 09:22:44;;;;;;;;;11.50;11.00;;;;;23.87;33.36;101522.73;112094;1263;19934;-39
2023/06/11 09:25:16;;;;;;;;;12.00;11.00;;;;;23.89;33.36;101522.02;112219;1247;21409;-42
2023/06/11 09:27:43;;;;;;;;;9.00;8.00;;;;;23.93;33.10;101519.63;112153;1247;19776;-39
2023/06/11 09:30:11;;;;;;;;;11.00;9.00;;;;;24.03;33.03;101517.51;112251;1263;18590;-40
2023/06/11 09:32:38;;;;;;;;;12.00;12.00;;;;;24.05;32.59;101512.64;112146;1263;18991;-39
2023/06/11 09:35:06;;;;;;;;;13.00;13.00;;;;;24.10;32.17;101512.41;112107;1250;21639;-39
2023/06/11 09:37:33;;;;;;;;;9.00;9.00;;;;;23.95;31.79;101518.14;112146;1263;20272;-39
2023/06/11 09:40:00;;;;;;;;;9.00;9.00;;;;;23.90;31.75;101523.02;112279;1247;20110;-39
2023/06/11 09:42:28;;;;;;;;;9.50;9.00;;;;;24.03;31.38;101517.61;112106;1263;19541;-40
2023/06/11 09:44:55;;;;;;;;;8.00;8.00;;;;;24.16;31.03;101514.77;112249;1263;20146;-40
2023/06/11 09:47:22;;;;;;;;;8.00;8.00;;;;;24.06;30.97;101516.27;112125;1248;18947;-40
2023/06/11 09:49:50;;;;;;;;;9.67;9.00;;;;;23.92;31.30;101515.73;112114;1263;22365;-41
2023/06/11 09:52:17;;;;;;;;;10.00;9.00;;;;;23.82;31.36;101515.70;112142;1247;19618;-39
2023/06/11 09:54:46;;;;;;;;;8.00;8.00;;;;;23.72;31.24;101515.13;112157;1263;20024;-39
2023/06/11 09:57:13;;;;;;;;;9.67;8.33;;;;;23.67;31.08;101516.46;112168;1248;20765;-39
2023/06/11 09:59:41;;;;;;;;;9.00;9.00;;;;;23.78;30.80;101512.13;112276;1247;18731;-39
2023/06/11 10:02:08;;;;;;;;;9.00;8.00;;;;;23.76;30.50;101514.58;112166;1263;18690;-41
2023/06/11 10:04:35;;;;;;;;;8.00;8.00;;;;;23.69;30.55;101515.65;112260;1263;21011;-39
2023/06/11 10:07:03;;;;;;;;;11.00;9.00;;;;;23.60;30.92;101517.98;112127;1251;19839;-39
2023/06/11 10:09:30;;;;;;;;;8.00;8.00;;;;;23.73;30.89;101518.17;112253;1247;21888;-40
2023/06/11 10:11:57;;;;;;;;;8.33;8.00;;;;;23.81;30.80;101522.52;112126;1263;21081;-39
2023/06/11 10:14:25;;;;;;;;;9.00;8.33;;;;;23.78;30.52;101517.09;112174;1248;18182;-40
2023/06/11 10:16:54;;;;;;;;;9.00;9.00;;;;;23.75;30.32;101522.68;112147;1247;21457;-39
2023/06/11 10:19:21;;;;;;;;;9.00;8.00;;;;;23.59;29.66;101522.83;112227;1263;19382;-38
2023/06/11 10:21:51;;;;;;;;;8.00;6.50;;;;;23.54;29.46;101514.15;112146;1251;20891;-39
2023/06/11 10:24:18;;;;;;;;;8.00;8.00;;;;;23.66;29.56;101512.36;112124;1263;19915;-40
2023/06/11 10:26:46;;;;;;;;;7.00;7.00;;;;;23.66;29.80;101518.02;112259;1251;20758;-39
2023/06/11 10:29:14;;;;;;;;;8.00;8.00;;;;;23.64;29.98;101519.16;112137;1248;19651;-38
2023/06/11 10:31:44;;;;;;;;;9.00;9.00;;;;;23.61;30.06;101515.30;112188;1263;18647;-39
2023/06/11 10:34:11;;;;;;;;;8.50;8.00;;;;;23.68;29.97;101514.37;112255;1248;20754;-39
2023/06/11 10:36:38;;;;;;;;;9.00;8.00;;;;;23.67;30.17;101504.45;112152;1247;19603;-39
2023/06/11 10:39:06;;;;;;;;;11.67;9.00;;;;;23.78;30.22;101504.30;112265;1248;19919;-39
2023/06/11 10:41:33;;;;;;;;;9.00;9.00;;;;;23.84;30.26;101496.98;112143;1248;20916;-39
2023/06/11 10:44:00;;;;;;;;;9.00;9.00;;;;;23.82;30.64;101503.01;112256;1263;18505;-38
2023/06/11 10:46:28;;;;;;;;;9.00;8.00;;;;;23.75;30.90;101506.94;112189;1248;20172;-39
2023/06/11 10:48:55;;;;;;;;;9.00;9.00;;;;;23.83;30.96;101502.80;112282;1247;22075;-39
2023/06/11 10:51:23;;;;;;;;;11.00;9.00;;;;;23.81;31.19;101504.80;112151;1247;19922;-38
2023/06/11 10:53:51;;;;;;;;;6.00;6.00;;;;;23.69;31.00;101506.77;112238;1263;21647;-39
2023/06/11 10:56:18;;;;;;;;;9.00;8.00;;;;;23.62;31.06;101500.55;112131;1263;20814;-39
2023/06/11 10:58:45;;;;;;;;;8.00;8.00;;;;;23.75;30.91;101493.67;112304;1263;19505;-39
2023/06/11 11:01:13;;;;;;;;;6.00;6.00;;;;;23.78;30.26;101499.67;112187;1263;18754;-39
2023/06/11 11:03:40;;;;;;;;;9.00;8.67;;;;;23.71;29.95;101497.55;112259;1247;19423;-38
2023/06/11 11:06:08;;;;;;;;;9.00;8.00;;;;;23.69;29.84;101496.30;112173;1263;18556;-39
2023/06/11 11:08:36;;;;;;;;;11.00;11.00;;;;;23.71;29.74;101490.65;112279;1263;20211;-39
2023/06/11 11:11:03;;;;;;;;;8.00;6.00;;;;;23.74;29.72;101487.56;112155;1251;21134;-40
2023/06/11 11:13:30;;;;;;;;;8.00;6.00;;;;;23.86;29.90;101483.83;112293;1247;20290;-42